sensor_id;sensor_type;location;lat;lon;timestamp;P1;durP1;ratioP1;P2;durP2;ratioP2
64244;SDS011;50584;29.058;-110.966;2022-09-16T00:02:04;5.32;;;1.50;;
64244;SDS011;50584;29.058;-110.966;2022-09-16T00:04:30;2.33;;;1.40;;
64244;SDS011;50584;29.058;-110.966;2022-09-16T00:06:55;3.65;;;1.40;;
64244;SDS011;50584;29.058;-110.966;2022-09-16T00:09:21;6.75;;;1.75;;
64244;SDS011;50584;29.058;-110.966;2022-09-16T00:11:47;3.58;;;1.60;;
64244;SDS011;50584;29.058;-110.966;2022-09-16T00:14:13;4.15;;;2.00;;
64244;SDS011;50584;29.058;-110.966;2022-09-16T00:16:38;4.40;;;1.70;;
64244;SDS011;50584;29.058;-110.966;2022-09-16T00:19:04;2.15;;;1.58;;
64244;SDS011;50584;29.058;-110.966;2022-09-16T00:21:30;5.78;;;1.52;;
64244;SDS011;50584;29.058;-110.966;2022-09-16T00:23:56;4.85;;;1.55;;
64244;SDS011;50584;29.058;-110.966;2022-09-16T00:26:22;8.82;;;1.83;;
64244;SDS011;50584;29.058;-110.966;2022-09-16T00:28:48;8.23;;;1.83;;
64244;SDS011;50584;29.058;-110.966;2022-09-16T00:31:15;5.47;;;1.60;;
64244;SDS011;50584;29.058;-110.966;2022-09-16T00:33:41;5.78;;;1.92;;
64244;SDS011;50584;29.058;-110.966;2022-09-16T00:36:08;11.98;;;1.60;;
64244;SDS011;50584;29.058;-110.966;2022-09-16T00:38:34;6.72;;;1.38;;
64244;SDS011;50584;29.058;-110.966;2022-09-16T00:41:00;4.15;;;1.50;;
64244;SDS011;50584;29.058;-110.966;2022-09-16T00:43:26;7.15;;;1.52;;
64244;SDS011;50584;29.058;-110.966;2022-09-16T00:46:01;3.35;;;1.70;;
64244;SDS011;50584;29.058;-110.966;2022-09-16T00:48:29;6.97;;;1.60;;
64244;SDS011;50584;29.058;-110.966;2022-09-16T00:50:59;1.95;;;1.75;;
64244;SDS011;50584;29.058;-110.966;2022-09-16T00:53:27;2.33;;;1.60;;
64244;SDS011;50584;29.058;-110.966;2022-09-16T00:55:54;5.03;;;1.60;;
64244;SDS011;50584;29.058;-110.966;2022-09-16T00:58:24;5.93;;;1.65;;
64244;SDS011;50584;29.058;-110.966;2022-09-16T01:00:52;6.50;;;2.00;;
64244;SDS011;50584;29.058;-110.966;2022-09-16T01:03:17;6.97;;;2.88;;
64244;SDS011;50584;29.058;-110.966;2022-09-16T01:05:43;5.95;;;2.63;;
64244;SDS011;50584;29.058;-110.966;2022-09-16T01:08:10;7.85;;;1.67;;
64244;SDS011;50584;29.058;-110.966;2022-09-16T01:10:39;7.75;;;1.65;;
64244;SDS011;50584;29.058;-110.966;2022-09-16T01:13:05;22.08;;;1.92;;
64244;SDS011;50584;29.058;-110.966;2022-09-16T01:26:07;11.07;;;2.58;;
64244;SDS011;50584;29.058;-110.966;2022-09-16T01:28:50;6.45;;;1.90;;
64244;SDS011;50584;29.058;-110.966;2022-09-16T01:33:48;5.82;;;1.95;;
64244;SDS011;50584;29.058;-110.966;2022-09-16T01:36:30;11.93;;;2.00;;
64244;SDS011;50584;29.058;-110.966;2022-09-16T01:39:06;6.15;;;2.40;;
64244;SDS011;50584;29.058;-110.966;2022-09-16T01:41:38;11.77;;;2.28;;
64244;SDS011;50584;29.058;-110.966;2022-09-16T01:46:54;10.88;;;1.80;;
64244;SDS011;50584;29.058;-110.966;2022-09-16T01:57:04;12.45;;;2.10;;
64244;SDS011;50584;29.058;-110.966;2022-09-16T01:59:37;9.93;;;2.08;;
64244;SDS011;50584;29.058;-110.966;2022-09-16T02:04:51;8.82;;;1.95;;
64244;SDS011;50584;29.058;-110.966;2022-09-16T02:07:19;4.85;;;2.00;;
64244;SDS011;50584;29.058;-110.966;2022-09-16T02:09:48;9.18;;;2.58;;
64244;SDS011;50584;29.058;-110.966;2022-09-16T02:12:29;7.25;;;1.80;;
64244;SDS011;50584;29.058;-110.966;2022-09-16T02:14:58;6.88;;;2.20;;
64244;SDS011;50584;29.058;-110.966;2022-09-16T02:17:25;8.27;;;2.53;;
64244;SDS011;50584;29.058;-110.966;2022-09-16T02:19:54;6.47;;;1.92;;
64244;SDS011;50584;29.058;-110.966;2022-09-16T02:22:27;7.68;;;2.15;;
64244;SDS011;50584;29.058;-110.966;2022-09-16T02:24:54;4.47;;;2.08;;
64244;SDS011;50584;29.058;-110.966;2022-09-16T02:27:21;8.00;;;2.22;;
64244;SDS011;50584;29.058;-110.966;2022-09-16T02:29:49;6.38;;;2.15;;
64244;SDS011;50584;29.058;-110.966;2022-09-16T02:32:16;16.52;;;2.05;;
64244;SDS011;50584;29.058;-110.966;2022-09-16T02:34:46;11.93;;;2.30;;
64244;SDS011;50584;29.058;-110.966;2022-09-16T02:37:16;8.23;;;2.08;;
64244;SDS011;50584;29.058;-110.966;2022-09-16T02:39:43;7.82;;;2.60;;
64244;SDS011;50584;29.058;-110.966;2022-09-16T02:42:11;14.70;;;2.28;;
64244;SDS011;50584;29.058;-110.966;2022-09-16T02:44:36;10.90;;;2.35;;
64244;SDS011;50584;29.058;-110.966;2022-09-16T02:49:32;6.68;;;1.83;;
64244;SDS011;50584;29.058;-110.966;2022-09-16T02:52:05;8.23;;;2.00;;
64244;SDS011;50584;29.058;-110.966;2022-09-16T02:54:52;9.07;;;1.90;;
64244;SDS011;50584;29.058;-110.966;2022-09-16T02:59:55;5.70;;;2.50;;
64244;SDS011;50584;29.058;-110.966;2022-09-16T03:02:21;8.88;;;2.30;;
64244;SDS011;50584;29.058;-110.966;2022-09-16T03:04:47;14.02;;;2.90;;
64244;SDS011;50584;29.058;-110.966;2022-09-16T03:07:13;6.32;;;2.58;;
64244;SDS011;50584;29.058;-110.966;2022-09-16T03:09:41;19.13;;;3.40;;
64244;SDS011;50584;29.058;-110.966;2022-09-16T03:12:11;13.07;;;2.95;;
64244;SDS011;50584;29.058;-110.966;2022-09-16T03:14:49;10.55;;;3.70;;
64244;SDS011;50584;29.058;-110.966;2022-09-16T03:22:49;5.30;;;2.20;;
64244;SDS011;50584;29.058;-110.966;2022-09-16T03:30:25;6.05;;;2.20;;
64244;SDS011;50584;29.058;-110.966;2022-09-16T03:35:25;4.88;;;1.58;;
64244;SDS011;50584;29.058;-110.966;2022-09-16T03:37:55;5.10;;;1.50;;
64244;SDS011;50584;29.058;-110.966;2022-09-16T03:40:22;9.13;;;1.90;;
64244;SDS011;50584;29.058;-110.966;2022-09-16T03:42:49;2.47;;;1.40;;
64244;SDS011;50584;29.058;-110.966;2022-09-16T03:45:16;5.15;;;1.80;;
64244;SDS011;50584;29.058;-110.966;2022-09-16T03:47:43;5.05;;;1.90;;
64244;SDS011;50584;29.058;-110.966;2022-09-16T03:50:09;6.60;;;2.20;;
64244;SDS011;50584;29.058;-110.966;2022-09-16T03:52:35;10.27;;;3.30;;
64244;SDS011;50584;29.058;-110.966;2022-09-16T03:55:01;4.13;;;2.35;;
64244;SDS011;50584;29.058;-110.966;2022-09-16T03:57:27;12.38;;;3.25;;
64244;SDS011;50584;29.058;-110.966;2022-09-16T03:59:54;7.07;;;2.47;;
64244;SDS011;50584;29.058;-110.966;2022-09-16T04:02:20;12.77;;;2.42;;
64244;SDS011;50584;29.058;-110.966;2022-09-16T04:04:46;18.45;;;5.05;;
64244;SDS011;50584;29.058;-110.966;2022-09-16T04:07:12;10.32;;;2.85;;
64244;SDS011;50584;29.058;-110.966;2022-09-16T04:09:37;5.72;;;2.10;;
64244;SDS011;50584;29.058;-110.966;2022-09-16T04:12:03;5.38;;;2.10;;
64244;SDS011;50584;29.058;-110.966;2022-09-16T04:14:32;6.68;;;2.00;;
64244;SDS011;50584;29.058;-110.966;2022-09-16T04:16:58;3.95;;;1.80;;
64244;SDS011;50584;29.058;-110.966;2022-09-16T04:19:24;5.38;;;2.30;;
64244;SDS011;50584;29.058;-110.966;2022-09-16T04:21:49;9.73;;;2.90;;
64244;SDS011;50584;29.058;-110.966;2022-09-16T04:24:15;5.35;;;2.50;;
64244;SDS011;50584;29.058;-110.966;2022-09-16T04:26:41;3.72;;;2.00;;
64244;SDS011;50584;29.058;-110.966;2022-09-16T04:29:07;7.60;;;2.65;;
64244;SDS011;50584;29.058;-110.966;2022-09-16T04:31:33;5.20;;;2.42;;
64244;SDS011;50584;29.058;-110.966;2022-09-16T04:34:02;8.38;;;2.88;;
64244;SDS011;50584;29.058;-110.966;2022-09-16T04:36:28;4.80;;;3.13;;
64244;SDS011;50584;29.058;-110.966;2022-09-16T04:38:54;10.55;;;3.25;;
64244;SDS011;50584;29.058;-110.966;2022-09-16T04:41:24;9.00;;;3.00;;
64244;SDS011;50584;29.058;-110.966;2022-09-16T04:43:50;7.18;;;2.45;;
64244;SDS011;50584;29.058;-110.966;2022-09-16T04:46:17;3.83;;;2.30;;
64244;SDS011;50584;29.058;-110.966;2022-09-16T04:48:45;7.47;;;2.17;;
64244;SDS011;50584;29.058;-110.966;2022-09-16T04:51:11;5.78;;;2.42;;
64244;SDS011;50584;29.058;-110.966;2022-09-16T04:53:38;5.90;;;2.80;;
64244;SDS011;50584;29.058;-110.966;2022-09-16T04:56:11;5.63;;;3.00;;
64244;SDS011;50584;29.058;-110.966;2022-09-16T04:58:41;5.47;;;3.20;;
64244;SDS011;50584;29.058;-110.966;2022-09-16T05:01:08;8.02;;;3.60;;
64244;SDS011;50584;29.058;-110.966;2022-09-16T05:03:38;5.40;;;3.80;;
64244;SDS011;50584;29.058;-110.966;2022-09-16T05:06:08;4.20;;;3.85;;
64244;SDS011;50584;29.058;-110.966;2022-09-16T05:08:34;15.20;;;4.20;;
64244;SDS011;50584;29.058;-110.966;2022-09-16T05:11:04;7.97;;;4.43;;
64244;SDS011;50584;29.058;-110.966;2022-09-16T05:13:30;5.22;;;3.80;;
64244;SDS011;50584;29.058;-110.966;2022-09-16T05:16:00;12.05;;;3.33;;
64244;SDS011;50584;29.058;-110.966;2022-09-16T05:18:25;3.13;;;2.83;;
64244;SDS011;50584;29.058;-110.966;2022-09-16T05:20:55;14.23;;;4.10;;
64244;SDS011;50584;29.058;-110.966;2022-09-16T05:23:21;3.80;;;2.38;;
64244;SDS011;50584;29.058;-110.966;2022-09-16T05:25:47;7.50;;;2.53;;
64244;SDS011;50584;29.058;-110.966;2022-09-16T05:28:13;4.32;;;2.10;;
64244;SDS011;50584;29.058;-110.966;2022-09-16T05:30:39;3.20;;;1.92;;
64244;SDS011;50584;29.058;-110.966;2022-09-16T05:33:05;3.53;;;2.00;;
64244;SDS011;50584;29.058;-110.966;2022-09-16T05:35:30;7.60;;;2.08;;
64244;SDS011;50584;29.058;-110.966;2022-09-16T05:37:56;6.75;;;2.33;;
64244;SDS011;50584;29.058;-110.966;2022-09-16T05:40:22;4.35;;;1.70;;
64244;SDS011;50584;29.058;-110.966;2022-09-16T05:42:48;1.95;;;1.75;;
64244;SDS011;50584;29.058;-110.966;2022-09-16T05:45:14;6.57;;;2.15;;
64244;SDS011;50584;29.058;-110.966;2022-09-16T05:47:39;3.78;;;2.40;;
64244;SDS011;50584;29.058;-110.966;2022-09-16T05:50:05;6.65;;;2.10;;
64244;SDS011;50584;29.058;-110.966;2022-09-16T05:52:31;3.97;;;1.60;;
64244;SDS011;50584;29.058;-110.966;2022-09-16T05:54:57;1.90;;;1.80;;
64244;SDS011;50584;29.058;-110.966;2022-09-16T05:57:23;8.98;;;2.20;;
64244;SDS011;50584;29.058;-110.966;2022-09-16T05:59:49;16.65;;;2.60;;
64244;SDS011;50584;29.058;-110.966;2022-09-16T06:02:14;4.97;;;3.97;;
64244;SDS011;50584;29.058;-110.966;2022-09-16T06:04:40;9.25;;;4.53;;
64244;SDS011;50584;29.058;-110.966;2022-09-16T06:07:06;12.10;;;5.78;;
64244;SDS011;50584;29.058;-110.966;2022-09-16T06:09:32;10.07;;;6.38;;
64244;SDS011;50584;29.058;-110.966;2022-09-16T06:11:58;11.23;;;6.20;;
64244;SDS011;50584;29.058;-110.966;2022-09-16T06:14:24;12.02;;;5.75;;
64244;SDS011;50584;29.058;-110.966;2022-09-16T06:16:50;14.15;;;5.38;;
64244;SDS011;50584;29.058;-110.966;2022-09-16T06:19:16;11.02;;;6.32;;
64244;SDS011;50584;29.058;-110.966;2022-09-16T06:21:42;12.60;;;4.50;;
64244;SDS011;50584;29.058;-110.966;2022-09-16T06:24:09;6.63;;;4.35;;
64244;SDS011;50584;29.058;-110.966;2022-09-16T06:26:39;6.97;;;4.10;;
64244;SDS011;50584;29.058;-110.966;2022-09-16T06:29:06;6.78;;;3.72;;
64244;SDS011;50584;29.058;-110.966;2022-09-16T06:31:32;7.95;;;3.20;;
64244;SDS011;50584;29.058;-110.966;2022-09-16T06:33:59;5.95;;;3.53;;
64244;SDS011;50584;29.058;-110.966;2022-09-16T06:36:26;8.98;;;3.38;;
64244;SDS011;50584;29.058;-110.966;2022-09-16T06:38:51;11.55;;;3.40;;
64244;SDS011;50584;29.058;-110.966;2022-09-16T06:41:18;7.80;;;3.40;;
64244;SDS011;50584;29.058;-110.966;2022-09-16T06:43:44;6.32;;;3.70;;
64244;SDS011;50584;29.058;-110.966;2022-09-16T06:46:13;3.28;;;2.95;;
64244;SDS011;50584;29.058;-110.966;2022-09-16T06:48:41;8.52;;;3.17;;
64244;SDS011;50584;29.058;-110.966;2022-09-16T06:51:23;4.05;;;3.15;;
64244;SDS011;50584;29.058;-110.966;2022-09-16T06:53:50;3.10;;;2.70;;
64244;SDS011;50584;29.058;-110.966;2022-09-16T06:56:17;5.50;;;2.28;;
64244;SDS011;50584;29.058;-110.966;2022-09-16T06:58:43;5.28;;;3.10;;
64244;SDS011;50584;29.058;-110.966;2022-09-16T07:01:16;5.18;;;2.78;;
64244;SDS011;50584;29.058;-110.966;2022-09-16T07:03:43;5.10;;;3.00;;
64244;SDS011;50584;29.058;-110.966;2022-09-16T07:06:10;6.85;;;2.65;;
64244;SDS011;50584;29.058;-110.966;2022-09-16T07:08:36;8.20;;;3.20;;
64244;SDS011;50584;29.058;-110.966;2022-09-16T07:11:18;7.13;;;3.03;;
64244;SDS011;50584;29.058;-110.966;2022-09-16T07:13:45;4.82;;;2.75;;
64244;SDS011;50584;29.058;-110.966;2022-09-16T07:16:15;7.28;;;2.95;;
64244;SDS011;50584;29.058;-110.966;2022-09-16T07:18:41;15.43;;;3.72;;
64244;SDS011;50584;29.058;-110.966;2022-09-16T07:21:13;9.48;;;3.25;;
64244;SDS011;50584;29.058;-110.966;2022-09-16T07:23:39;4.45;;;3.20;;
64244;SDS011;50584;29.058;-110.966;2022-09-16T07:26:06;8.85;;;2.90;;
64244;SDS011;50584;29.058;-110.966;2022-09-16T07:28:33;8.45;;;3.28;;
64244;SDS011;50584;29.058;-110.966;2022-09-16T07:31:03;6.38;;;2.90;;
64244;SDS011;50584;29.058;-110.966;2022-09-16T07:33:29;7.80;;;3.20;;
64244;SDS011;50584;29.058;-110.966;2022-09-16T07:35:57;14.52;;;3.83;;
64244;SDS011;50584;29.058;-110.966;2022-09-16T07:38:23;7.05;;;2.22;;
64244;SDS011;50584;29.058;-110.966;2022-09-16T07:40:48;6.97;;;2.28;;
64244;SDS011;50584;29.058;-110.966;2022-09-16T07:43:15;6.88;;;2.33;;
64244;SDS011;50584;29.058;-110.966;2022-09-16T07:45:40;3.08;;;2.30;;
64244;SDS011;50584;29.058;-110.966;2022-09-16T07:48:06;5.45;;;2.63;;
64244;SDS011;50584;29.058;-110.966;2022-09-16T07:50:32;9.70;;;3.25;;
64244;SDS011;50584;29.058;-110.966;2022-09-16T07:52:58;7.70;;;3.35;;
64244;SDS011;50584;29.058;-110.966;2022-09-16T07:55:24;8.50;;;3.45;;
64244;SDS011;50584;29.058;-110.966;2022-09-16T07:57:50;10.50;;;3.67;;
64244;SDS011;50584;29.058;-110.966;2022-09-16T08:00:16;9.25;;;4.10;;
64244;SDS011;50584;29.058;-110.966;2022-09-16T08:02:42;10.00;;;3.80;;
64244;SDS011;50584;29.058;-110.966;2022-09-16T08:05:08;5.72;;;3.40;;
64244;SDS011;50584;29.058;-110.966;2022-09-16T08:07:34;11.45;;;4.18;;
64244;SDS011;50584;29.058;-110.966;2022-09-16T08:10:00;16.02;;;3.92;;
64244;SDS011;50584;29.058;-110.966;2022-09-16T08:12:26;19.50;;;4.35;;
64244;SDS011;50584;29.058;-110.966;2022-09-16T08:14:57;14.07;;;3.40;;
64244;SDS011;50584;29.058;-110.966;2022-09-16T08:17:23;15.20;;;3.17;;
64244;SDS011;50584;29.058;-110.966;2022-09-16T08:19:49;10.90;;;4.00;;
64244;SDS011;50584;29.058;-110.966;2022-09-16T08:22:15;12.93;;;4.20;;
64244;SDS011;50584;29.058;-110.966;2022-09-16T08:24:40;7.60;;;3.75;;
64244;SDS011;50584;29.058;-110.966;2022-09-16T08:27:06;10.65;;;4.88;;
64244;SDS011;50584;29.058;-110.966;2022-09-16T08:29:32;10.00;;;3.60;;
64244;SDS011;50584;29.058;-110.966;2022-09-16T08:31:58;13.48;;;3.95;;
64244;SDS011;50584;29.058;-110.966;2022-09-16T08:34:24;9.35;;;3.83;;
64244;SDS011;50584;29.058;-110.966;2022-09-16T08:36:50;8.85;;;4.20;;
64244;SDS011;50584;29.058;-110.966;2022-09-16T08:39:16;11.27;;;3.75;;
64244;SDS011;50584;29.058;-110.966;2022-09-16T08:42:01;11.70;;;3.92;;
64244;SDS011;50584;29.058;-110.966;2022-09-16T08:47:03;6.00;;;4.10;;
64244;SDS011;50584;29.058;-110.966;2022-09-16T08:49:45;9.70;;;3.80;;
64244;SDS011;50584;29.058;-110.966;2022-09-16T08:52:17;10.35;;;3.97;;
64244;SDS011;50584;29.058;-110.966;2022-09-16T08:54:51;9.52;;;3.95;;
64244;SDS011;50584;29.058;-110.966;2022-09-16T08:57:23;10.50;;;4.10;;
64244;SDS011;50584;29.058;-110.966;2022-09-16T08:59:52;7.97;;;3.80;;
64244;SDS011;50584;29.058;-110.966;2022-09-16T09:04:47;10.52;;;4.75;;
64244;SDS011;50584;29.058;-110.966;2022-09-16T09:07:23;8.38;;;4.15;;
64244;SDS011;50584;29.058;-110.966;2022-09-16T09:15:00;11.43;;;4.07;;
64244;SDS011;50584;29.058;-110.966;2022-09-16T09:17:33;4.43;;;3.80;;
64244;SDS011;50584;29.058;-110.966;2022-09-16T09:30:29;21.42;;;4.45;;
64244;SDS011;50584;29.058;-110.966;2022-09-16T09:39:00;15.20;;;4.45;;
64244;SDS011;50584;29.058;-110.966;2022-09-16T09:40:58;11.52;;;3.85;;
64244;SDS011;50584;29.058;-110.966;2022-09-16T09:43:33;17.25;;;3.80;;
64244;SDS011;50584;29.058;-110.966;2022-09-16T09:51:04;7.60;;;3.90;;
64244;SDS011;50584;29.058;-110.966;2022-09-16T09:53:39;13.55;;;3.85;;
64244;SDS011;50584;29.058;-110.966;2022-09-16T09:58:34;11.57;;;3.85;;
64244;SDS011;50584;29.058;-110.966;2022-09-16T10:01:02;13.38;;;4.10;;
64244;SDS011;50584;29.058;-110.966;2022-09-16T10:03:28;9.20;;;3.90;;
64244;SDS011;50584;29.058;-110.966;2022-09-16T10:05:54;6.55;;;4.03;;
64244;SDS011;50584;29.058;-110.966;2022-09-16T10:11:19;10.70;;;3.97;;
64244;SDS011;50584;29.058;-110.966;2022-09-16T10:13:49;11.20;;;3.67;;
64244;SDS011;50584;29.058;-110.966;2022-09-16T10:16:17;7.53;;;3.97;;
64244;SDS011;50584;29.058;-110.966;2022-09-16T10:19:00;7.25;;;3.85;;
64244;SDS011;50584;29.058;-110.966;2022-09-16T10:21:36;10.18;;;3.72;;
64244;SDS011;50584;29.058;-110.966;2022-09-16T10:24:03;7.78;;;3.47;;
64244;SDS011;50584;29.058;-110.966;2022-09-16T10:26:28;9.27;;;3.70;;
64244;SDS011;50584;29.058;-110.966;2022-09-16T10:31:21;7.32;;;3.50;;
64244;SDS011;50584;29.058;-110.966;2022-09-16T10:33:47;3.88;;;3.22;;
64244;SDS011;50584;29.058;-110.966;2022-09-16T10:36:20;4.93;;;3.03;;
64244;SDS011;50584;29.058;-110.966;2022-09-16T10:38:48;4.28;;;2.72;;
64244;SDS011;50584;29.058;-110.966;2022-09-16T10:41:20;8.25;;;3.28;;
64244;SDS011;50584;29.058;-110.966;2022-09-16T10:43:51;10.85;;;3.47;;
64244;SDS011;50584;29.058;-110.966;2022-09-16T10:46:17;4.00;;;3.00;;
64244;SDS011;50584;29.058;-110.966;2022-09-16T10:48:44;2.90;;;2.70;;
64244;SDS011;50584;29.058;-110.966;2022-09-16T10:53:49;6.82;;;3.60;;
64244;SDS011;50584;29.058;-110.966;2022-09-16T10:56:16;7.15;;;3.30;;
64244;SDS011;50584;29.058;-110.966;2022-09-16T10:58:43;3.63;;;3.15;;
64244;SDS011;50584;29.058;-110.966;2022-09-16T11:14:13;5.43;;;2.90;;
64244;SDS011;50584;29.058;-110.966;2022-09-16T11:16:57;3.17;;;2.85;;
64244;SDS011;50584;29.058;-110.966;2022-09-16T11:27:05;7.97;;;3.13;;
64244;SDS011;50584;29.058;-110.966;2022-09-16T11:37:26;3.08;;;2.83;;
64244;SDS011;50584;29.058;-110.966;2022-09-16T11:42:33;5.47;;;2.70;;
64244;SDS011;50584;29.058;-110.966;2022-09-16T11:45:42;5.60;;;3.35;;
64244;SDS011;50584;29.058;-110.966;2022-09-16T11:47:57;6.72;;;3.78;;
64244;SDS011;50584;29.058;-110.966;2022-09-16T12:00:42;4.00;;;2.47;;
64244;SDS011;50584;29.058;-110.966;2022-09-16T12:03:11;3.58;;;2.42;;
64244;SDS011;50584;29.058;-110.966;2022-09-16T12:05:44;2.90;;;2.70;;
64244;SDS011;50584;29.058;-110.966;2022-09-16T12:11:01;10.02;;;2.45;;
64244;SDS011;50584;29.058;-110.966;2022-09-16T12:15:58;2.75;;;2.13;;
64244;SDS011;50584;29.058;-110.966;2022-09-16T12:18:29;3.72;;;2.13;;
64244;SDS011;50584;29.058;-110.966;2022-09-16T12:23:33;4.10;;;2.22;;
64244;SDS011;50584;29.058;-110.966;2022-09-16T12:26:01;2.20;;;2.10;;
64244;SDS011;50584;29.058;-110.966;2022-09-16T12:33:43;2.45;;;2.22;;
64244;SDS011;50584;29.058;-110.966;2022-09-16T12:36:14;2.42;;;2.33;;
64244;SDS011;50584;29.058;-110.966;2022-09-16T12:38:40;17.63;;;2.83;;
64244;SDS011;50584;29.058;-110.966;2022-09-16T12:46:10;2.65;;;2.45;;
64244;SDS011;50584;29.058;-110.966;2022-09-16T12:56:36;3.58;;;2.35;;
64244;SDS011;50584;29.058;-110.966;2022-09-16T12:59:23;3.53;;;2.70;;
64244;SDS011;50584;29.058;-110.966;2022-09-16T13:01:57;3.17;;;2.50;;
64244;SDS011;50584;29.058;-110.966;2022-09-16T13:04:30;3.72;;;2.90;;
64244;SDS011;50584;29.058;-110.966;2022-09-16T13:06:57;3.35;;;2.97;;
64244;SDS011;50584;29.058;-110.966;2022-09-16T13:09:27;5.78;;;3.40;;
64244;SDS011;50584;29.058;-110.966;2022-09-16T13:11:57;3.67;;;3.38;;
64244;SDS011;50584;29.058;-110.966;2022-09-16T13:14:26;6.45;;;3.38;;
64244;SDS011;50584;29.058;-110.966;2022-09-16T13:16:56;3.83;;;3.08;;
64244;SDS011;50584;29.058;-110.966;2022-09-16T13:19:36;5.90;;;3.65;;
64244;SDS011;50584;29.058;-110.966;2022-09-16T13:22:10;4.65;;;2.95;;
64244;SDS011;50584;29.058;-110.966;2022-09-16T13:24:38;7.38;;;2.70;;
64244;SDS011;50584;29.058;-110.966;2022-09-16T13:30:43;2.83;;;2.42;;
64244;SDS011;50584;29.058;-110.966;2022-09-16T13:37:57;5.00;;;2.75;;
64244;SDS011;50584;29.058;-110.966;2022-09-16T13:40:27;3.38;;;3.17;;
64244;SDS011;50584;29.058;-110.966;2022-09-16T13:48:04;5.75;;;2.70;;
64244;SDS011;50584;29.058;-110.966;2022-09-16T13:50:30;5.07;;;2.55;;
64244;SDS011;50584;29.058;-110.966;2022-09-16T13:52:56;5.07;;;2.22;;
64244;SDS011;50584;29.058;-110.966;2022-09-16T13:55:32;2.83;;;2.50;;
64244;SDS011;50584;29.058;-110.966;2022-09-16T13:58:04;3.97;;;2.65;;
64244;SDS011;50584;29.058;-110.966;2022-09-16T14:03:16;2.75;;;2.55;;
64244;SDS011;50584;29.058;-110.966;2022-09-16T14:10:55;7.25;;;3.17;;
64244;SDS011;50584;29.058;-110.966;2022-09-16T14:13:23;5.38;;;3.10;;
64244;SDS011;50584;29.058;-110.966;2022-09-16T14:15:53;7.55;;;2.55;;
64244;SDS011;50584;29.058;-110.966;2022-09-16T14:18:27;4.20;;;2.55;;
64244;SDS011;50584;29.058;-110.966;2022-09-16T14:23:21;2.53;;;2.33;;
64244;SDS011;50584;29.058;-110.966;2022-09-16T14:25:47;3.00;;;2.40;;
64244;SDS011;50584;29.058;-110.966;2022-09-16T14:30:43;5.10;;;2.60;;
64244;SDS011;50584;29.058;-110.966;2022-09-16T14:33:09;9.38;;;3.08;;
64244;SDS011;50584;29.058;-110.966;2022-09-16T14:35:36;8.93;;;2.55;;
64244;SDS011;50584;29.058;-110.966;2022-09-16T14:38:02;7.88;;;2.60;;
64244;SDS011;50584;29.058;-110.966;2022-09-16T14:40:29;6.70;;;2.53;;
64244;SDS011;50584;29.058;-110.966;2022-09-16T14:43:03;12.00;;;2.97;;
64244;SDS011;50584;29.058;-110.966;2022-09-16T14:45:30;5.38;;;2.55;;
64244;SDS011;50584;29.058;-110.966;2022-09-16T14:47:57;7.22;;;2.67;;
64244;SDS011;50584;29.058;-110.966;2022-09-16T14:50:30;7.40;;;2.88;;
64244;SDS011;50584;29.058;-110.966;2022-09-16T14:52:57;3.50;;;3.20;;
64244;SDS011;50584;29.058;-110.966;2022-09-16T14:55:28;2.95;;;2.65;;
64244;SDS011;50584;29.058;-110.966;2022-09-16T14:57:57;4.90;;;2.80;;
64244;SDS011;50584;29.058;-110.966;2022-09-16T15:00:26;6.78;;;2.35;;
64244;SDS011;50584;29.058;-110.966;2022-09-16T15:03:08;14.15;;;3.22;;
64244;SDS011;50584;29.058;-110.966;2022-09-16T15:05:37;3.15;;;2.75;;
64244;SDS011;50584;29.058;-110.966;2022-09-16T15:10:29;10.77;;;2.80;;
64244;SDS011;50584;29.058;-110.966;2022-09-16T15:12:56;5.30;;;2.92;;
64244;SDS011;50584;29.058;-110.966;2022-09-16T15:15:26;15.65;;;2.75;;
64244;SDS011;50584;29.058;-110.966;2022-09-16T15:20:21;7.35;;;2.88;;
64244;SDS011;50584;29.058;-110.966;2022-09-16T15:22:48;9.25;;;3.13;;
64244;SDS011;50584;29.058;-110.966;2022-09-16T15:25:21;5.82;;;2.95;;
64244;SDS011;50584;29.058;-110.966;2022-09-16T15:27:48;3.40;;;3.10;;
64244;SDS011;50584;29.058;-110.966;2022-09-16T15:30:21;3.72;;;2.70;;
64244;SDS011;50584;29.058;-110.966;2022-09-16T15:32:47;3.90;;;3.10;;
64244;SDS011;50584;29.058;-110.966;2022-09-16T15:35:23;7.82;;;3.35;;
64244;SDS011;50584;29.058;-110.966;2022-09-16T15:37:50;7.30;;;4.50;;
64244;SDS011;50584;29.058;-110.966;2022-09-16T15:43:12;2.97;;;2.78;;
64244;SDS011;50584;29.058;-110.966;2022-09-16T15:45:39;4.95;;;2.95;;
64244;SDS011;50584;29.058;-110.966;2022-09-16T15:48:15;10.35;;;3.40;;
64244;SDS011;50584;29.058;-110.966;2022-09-16T15:50:44;4.50;;;2.67;;
64244;SDS011;50584;29.058;-110.966;2022-09-16T15:53:12;4.80;;;3.45;;
64244;SDS011;50584;29.058;-110.966;2022-09-16T16:06:17;5.07;;;2.50;;
64244;SDS011;50584;29.058;-110.966;2022-09-16T16:11:17;3.53;;;2.20;;
64244;SDS011;50584;29.058;-110.966;2022-09-16T16:13:43;3.00;;;1.90;;
64244;SDS011;50584;29.058;-110.966;2022-09-16T16:16:09;2.55;;;2.10;;
64244;SDS011;50584;29.058;-110.966;2022-09-16T16:18:37;2.22;;;2.08;;
64244;SDS011;50584;29.058;-110.966;2022-09-16T16:21:04;3.05;;;2.30;;
64244;SDS011;50584;29.058;-110.966;2022-09-16T16:23:30;4.03;;;1.90;;
64244;SDS011;50584;29.058;-110.966;2022-09-16T16:25:56;1.95;;;1.83;;
64244;SDS011;50584;29.058;-110.966;2022-09-16T16:28:21;7.68;;;2.05;;
64244;SDS011;50584;29.058;-110.966;2022-09-16T16:30:47;2.90;;;2.45;;
64244;SDS011;50584;29.058;-110.966;2022-09-16T16:33:13;3.53;;;1.95;;
64244;SDS011;50584;29.058;-110.966;2022-09-16T16:35:39;3.50;;;1.90;;
64244;SDS011;50584;29.058;-110.966;2022-09-16T16:38:04;3.97;;;2.10;;
64244;SDS011;50584;29.058;-110.966;2022-09-16T16:40:30;3.30;;;1.90;;
64244;SDS011;50584;29.058;-110.966;2022-09-16T16:42:56;2.15;;;2.00;;
64244;SDS011;50584;29.058;-110.966;2022-09-16T16:45:22;3.47;;;2.10;;
64244;SDS011;50584;29.058;-110.966;2022-09-16T16:47:48;3.50;;;1.83;;
64244;SDS011;50584;29.058;-110.966;2022-09-16T16:50:13;6.63;;;2.15;;
64244;SDS011;50584;29.058;-110.966;2022-09-16T16:52:39;5.13;;;1.83;;
64244;SDS011;50584;29.058;-110.966;2022-09-16T16:55:05;5.70;;;1.80;;
64244;SDS011;50584;29.058;-110.966;2022-09-16T16:57:31;3.10;;;2.00;;
64244;SDS011;50584;29.058;-110.966;2022-09-16T16:59:57;5.72;;;1.60;;
64244;SDS011;50584;29.058;-110.966;2022-09-16T17:02:23;1.85;;;1.65;;
64244;SDS011;50584;29.058;-110.966;2022-09-16T17:04:49;3.58;;;1.83;;
64244;SDS011;50584;29.058;-110.966;2022-09-16T17:07:14;2.70;;;1.70;;
64244;SDS011;50584;29.058;-110.966;2022-09-16T17:09:41;2.50;;;1.52;;
64244;SDS011;50584;29.058;-110.966;2022-09-16T17:12:07;1.63;;;1.52;;
64244;SDS011;50584;29.058;-110.966;2022-09-16T17:14:33;10.18;;;1.90;;
64244;SDS011;50584;29.058;-110.966;2022-09-16T17:16:59;4.40;;;2.00;;
64244;SDS011;50584;29.058;-110.966;2022-09-16T17:19:27;5.55;;;2.03;;
64244;SDS011;50584;29.058;-110.966;2022-09-16T17:21:53;1.70;;;1.60;;
64244;SDS011;50584;29.058;-110.966;2022-09-16T17:24:20;12.60;;;2.30;;
64244;SDS011;50584;29.058;-110.966;2022-09-16T17:26:46;1.70;;;1.60;;
64244;SDS011;50584;29.058;-110.966;2022-09-16T17:29:11;1.98;;;1.80;;
64244;SDS011;50584;29.058;-110.966;2022-09-16T17:31:37;4.95;;;1.80;;
64244;SDS011;50584;29.058;-110.966;2022-09-16T17:34:04;1.95;;;1.80;;